sensor_id;sensor_type;location;lat;lon;timestamp;temperature;humidity
23783;DHT22;12071;50.850;4.446;2022-11-11T00:01:25;10.70;7.60
23783;DHT22;12071;50.850;4.446;2022-11-11T00:03:54;10.70;3.90
23783;DHT22;12071;50.850;4.446;2022-11-11T00:06:20;10.70;7.80
23783;DHT22;12071;50.850;4.446;2022-11-11T00:08:47;10.70;7.60
23783;DHT22;12071;50.850;4.446;2022-11-11T00:11:13;10.60;12.30
23783;DHT22;12071;50.850;4.446;2022-11-11T00:13:40;10.70;8.70
23783;DHT22;12071;50.850;4.446;2022-11-11T00:16:17;10.70;6.10
23783;DHT22;12071;50.850;4.446;2022-11-11T00:18:43;10.50;13.90
23783;DHT22;12071;50.850;4.446;2022-11-11T00:21:29;10.70;9.50
23783;DHT22;12071;50.850;4.446;2022-11-11T00:27:04;10.50;9.40
23783;DHT22;12071;50.850;4.446;2022-11-11T00:29:30;10.60;9.20
23783;DHT22;12071;50.850;4.446;2022-11-11T00:31:56;10.70;4.00
23783;DHT22;12071;50.850;4.446;2022-11-11T00:34:40;10.60;6.30
23783;DHT22;12071;50.850;4.446;2022-11-11T00:37:25;10.60;6.00
23783;DHT22;12071;50.850;4.446;2022-11-11T00:39:51;10.50;12.10
23783;DHT22;12071;50.850;4.446;2022-11-11T00:42:16;10.60;12.80
23783;DHT22;12071;50.850;4.446;2022-11-11T00:44:42;10.70;5.00
23783;DHT22;12071;50.850;4.446;2022-11-11T00:47:08;10.60;7.00
23783;DHT22;12071;50.850;4.446;2022-11-11T00:49:52;10.60;6.00
23783;DHT22;12071;50.850;4.446;2022-11-11T00:52:36;10.60;2.90
23783;DHT22;12071;50.850;4.446;2022-11-11T00:55:02;10.70;4.60
23783;DHT22;12071;50.850;4.446;2022-11-11T00:57:28;10.80;1.00
23783;DHT22;12071;50.850;4.446;2022-11-11T00:59:53;10.70;1.00
23783;DHT22;12071;50.850;4.446;2022-11-11T01:02:19;10.60;1.00
23783;DHT22;12071;50.850;4.446;2022-11-11T01:04:44;10.50;3.90
23783;DHT22;12071;50.850;4.446;2022-11-11T01:07:10;10.50;5.50
23783;DHT22;12071;50.850;4.446;2022-11-11T01:09:35;10.40;6.70
23783;DHT22;12071;50.850;4.446;2022-11-11T01:12:01;10.50;10.60
23783;DHT22;12071;50.850;4.446;2022-11-11T01:14:26;10.60;3.90
23783;DHT22;12071;50.850;4.446;2022-11-11T01:16:52;10.40;3.60
23783;DHT22;12071;50.850;4.446;2022-11-11T01:19:18;10.50;11.10
23783;DHT22;12071;50.850;4.446;2022-11-11T01:21:43;10.60;9.70
23783;DHT22;12071;50.850;4.446;2022-11-11T01:24:09;10.70;1.20
23783;DHT22;12071;50.850;4.446;2022-11-11T01:26:34;10.80;1.00
23783;DHT22;12071;50.850;4.446;2022-11-11T01:29:00;10.80;1.00
23783;DHT22;12071;50.850;4.446;2022-11-11T01:31:26;10.60;1.00
23783;DHT22;12071;50.850;4.446;2022-11-11T01:33:51;10.70;1.00
23783;DHT22;12071;50.850;4.446;2022-11-11T01:36:21;10.50;1.00
23783;DHT22;12071;50.850;4.446;2022-11-11T01:39:04;10.60;2.10
23783;DHT22;12071;50.850;4.446;2022-11-11T01:41:33;10.70;1.00
23783;DHT22;12071;50.850;4.446;2022-11-11T01:44:00;10.70;1.00
23783;DHT22;12071;50.850;4.446;2022-11-11T01:46:33;10.60;1.00
23783;DHT22;12071;50.850;4.446;2022-11-11T01:54:25;10.50;4.70
23783;DHT22;12071;50.850;4.446;2022-11-11T01:57:16;10.30;2.50
23783;DHT22;12071;50.850;4.446;2022-11-11T01:59:43;10.30;10.50
23783;DHT22;12071;50.850;4.446;2022-11-11T02:02:18;10.50;7.00
23783;DHT22;12071;50.850;4.446;2022-11-11T02:04:46;10.60;1.00
23783;DHT22;12071;50.850;4.446;2022-11-11T02:07:33;10.70;1.00
23783;DHT22;12071;50.850;4.446;2022-11-11T02:10:01;10.70;1.00
23783;DHT22;12071;50.850;4.446;2022-11-11T02:12:27;10.50;1.00
23783;DHT22;12071;50.850;4.446;2022-11-11T02:15:11;10.60;1.00
23783;DHT22;12071;50.850;4.446;2022-11-11T02:17:38;10.70;1.00
23783;DHT22;12071;50.850;4.446;2022-11-11T02:20:04;10.70;1.00
23783;DHT22;12071;50.850;4.446;2022-11-11T02:22:40;10.70;1.00
23783;DHT22;12071;50.850;4.446;2022-11-11T02:25:09;10.60;1.00
23783;DHT22;12071;50.850;4.446;2022-11-11T02:27:37;10.60;1.00
23783;DHT22;12071;50.850;4.446;2022-11-11T02:30:06;10.60;1.00
23783;DHT22;12071;50.850;4.446;2022-11-11T02:32:44;10.60;1.00
23783;DHT22;12071;50.850;4.446;2022-11-11T02:35:21;10.90;1.00
23783;DHT22;12071;50.850;4.446;2022-11-11T02:37:51;10.80;1.00
23783;DHT22;12071;50.850;4.446;2022-11-11T02:40:29;10.90;1.00
23783;DHT22;12071;50.850;4.446;2022-11-11T02:42:57;10.80;1.00
23783;DHT22;12071;50.850;4.446;2022-11-11T02:45:23;10.80;1.00
23783;DHT22;12071;50.850;4.446;2022-11-11T02:47:49;10.90;1.00
23783;DHT22;12071;50.850;4.446;2022-11-11T02:50:14;10.80;1.00
23783;DHT22;12071;50.850;4.446;2022-11-11T02:52:40;10.80;1.00
23783;DHT22;12071;50.850;4.446;2022-11-11T02:55:06;10.90;1.00
23783;DHT22;12071;50.850;4.446;2022-11-11T02:57:31;10.80;1.00
23783;DHT22;12071;50.850;4.446;2022-11-11T02:59:58;10.80;1.00
23783;DHT22;12071;50.850;4.446;2022-11-11T03:02:25;10.70;1.00
23783;DHT22;12071;50.850;4.446;2022-11-11T03:04:52;10.70;1.00
23783;DHT22;12071;50.850;4.446;2022-11-11T03:07:19;10.70;1.00
23783;DHT22;12071;50.850;4.446;2022-11-11T03:09:44;10.60;1.00
23783;DHT22;12071;50.850;4.446;2022-11-11T03:12:10;10.70;1.00
23783;DHT22;12071;50.850;4.446;2022-11-11T03:14:35;10.90;1.00
23783;DHT22;12071;50.850;4.446;2022-11-11T03:17:01;10.80;1.00
23783;DHT22;12071;50.850;4.446;2022-11-11T03:19:45;10.90;1.00
23783;DHT22;12071;50.850;4.446;2022-11-11T03:22:10;11.00;1.00
23783;DHT22;12071;50.850;4.446;2022-11-11T03:24:36;10.90;1.00
23783;DHT22;12071;50.850;4.446;2022-11-11T03:27:20;11.00;1.00
23783;DHT22;12071;50.850;4.446;2022-11-11T03:29:45;11.00;1.00
23783;DHT22;12071;50.850;4.446;2022-11-11T03:32:11;11.00;1.00
23783;DHT22;12071;50.850;4.446;2022-11-11T03:34:37;11.10;1.00
23783;DHT22;12071;50.850;4.446;2022-11-11T03:37:04;10.90;1.00
23783;DHT22;12071;50.850;4.446;2022-11-11T03:39:48;10.80;1.00
23783;DHT22;12071;50.850;4.446;2022-11-11T03:42:14;10.70;1.00
23783;DHT22;12071;50.850;4.446;2022-11-11T03:44:39;10.60;1.00
23783;DHT22;12071;50.850;4.446;2022-11-11T03:47:05;10.90;1.00
23783;DHT22;12071;50.850;4.446;2022-11-11T03:49:30;11.00;1.00
23783;DHT22;12071;50.850;4.446;2022-11-11T03:51:56;11.00;1.00
23783;DHT22;12071;50.850;4.446;2022-11-11T03:54:21;10.70;1.00
23783;DHT22;12071;50.850;4.446;2022-11-11T03:56:47;10.50;1.00
23783;DHT22;12071;50.850;4.446;2022-11-11T03:59:13;10.50;1.00
23783;DHT22;12071;50.850;4.446;2022-11-11T04:01:40;10.80;1.00
23783;DHT22;12071;50.850;4.446;2022-11-11T04:04:24;10.80;1.00
23783;DHT22;12071;50.850;4.446;2022-11-11T04:07:09;10.80;1.00
23783;DHT22;12071;50.850;4.446;2022-11-11T04:09:53;10.80;1.00
23783;DHT22;12071;50.850;4.446;2022-11-11T04:12:39;10.90;1.00
23783;DHT22;12071;50.850;4.446;2022-11-11T04:15:24;11.00;1.00
23783;DHT22;12071;50.850;4.446;2022-11-11T04:18:08;10.90;1.00
23783;DHT22;12071;50.850;4.446;2022-11-11T04:20:34;10.80;1.00
23783;DHT22;12071;50.850;4.446;2022-11-11T04:23:18;10.60;1.00
23783;DHT22;12071;50.850;4.446;2022-11-11T04:25:43;10.40;1.00
23783;DHT22;12071;50.850;4.446;2022-11-11T04:28:17;10.40;1.00
23783;DHT22;12071;50.850;4.446;2022-11-11T04:31:01;10.30;1.00
23783;DHT22;12071;50.850;4.446;2022-11-11T04:33:26;10.30;1.00
23783;DHT22;12071;50.850;4.446;2022-11-11T04:35:52;10.30;1.00
23783;DHT22;12071;50.850;4.446;2022-11-11T04:38:17;10.30;1.00
23783;DHT22;12071;50.850;4.446;2022-11-11T04:41:02;10.40;1.00
23783;DHT22;12071;50.850;4.446;2022-11-11T04:43:28;10.30;1.00
23783;DHT22;12071;50.850;4.446;2022-11-11T04:46:00;10.20;1.00
23783;DHT22;12071;50.850;4.446;2022-11-11T04:48:26;10.50;1.00
23783;DHT22;12071;50.850;4.446;2022-11-11T04:50:52;10.60;1.00
23783;DHT22;12071;50.850;4.446;2022-11-11T04:53:18;10.60;1.00
23783;DHT22;12071;50.850;4.446;2022-11-11T04:55:44;10.60;1.00
23783;DHT22;12071;50.850;4.446;2022-11-11T04:58:33;10.50;1.00
23783;DHT22;12071;50.850;4.446;2022-11-11T05:01:00;10.50;1.00
23783;DHT22;12071;50.850;4.446;2022-11-11T05:03:25;10.40;1.00
23783;DHT22;12071;50.850;4.446;2022-11-11T05:05:53;10.50;1.00
23783;DHT22;12071;50.850;4.446;2022-11-11T05:08:42;10.50;1.00
23783;DHT22;12071;50.850;4.446;2022-11-11T05:11:29;10.40;1.00
23783;DHT22;12071;50.850;4.446;2022-11-11T05:13:57;10.30;1.00
23783;DHT22;12071;50.850;4.446;2022-11-11T05:16:44;10.00;1.00
23783;DHT22;12071;50.850;4.446;2022-11-11T05:19:28;10.00;1.00
23783;DHT22;12071;50.850;4.446;2022-11-11T05:24:41;10.10;1.00
23783;DHT22;12071;50.850;4.446;2022-11-11T05:27:25;10.20;1.00
23783;DHT22;12071;50.850;4.446;2022-11-11T05:29:51;10.00;1.00
23783;DHT22;12071;50.850;4.446;2022-11-11T05:32:18;9.80;1.00
23783;DHT22;12071;50.850;4.446;2022-11-11T05:34:44;9.80;1.00
23783;DHT22;12071;50.850;4.446;2022-11-11T05:37:11;9.90;1.00
23783;DHT22;12071;50.850;4.446;2022-11-11T05:39:36;9.90;1.00
23783;DHT22;12071;50.850;4.446;2022-11-11T05:42:02;9.70;1.00
23783;DHT22;12071;50.850;4.446;2022-11-11T05:44:28;9.70;1.00
23783;DHT22;12071;50.850;4.446;2022-11-11T05:46:53;9.60;1.00
23783;DHT22;12071;50.850;4.446;2022-11-11T05:49:19;9.50;1.00
23783;DHT22;12071;50.850;4.446;2022-11-11T05:51:45;9.60;1.00
23783;DHT22;12071;50.850;4.446;2022-11-11T05:54:12;9.70;1.00
23783;DHT22;12071;50.850;4.446;2022-11-11T05:56:39;9.80;1.00
23783;DHT22;12071;50.850;4.446;2022-11-11T05:59:05;9.70;1.00
23783;DHT22;12071;50.850;4.446;2022-11-11T06:01:31;9.60;1.00
23783;DHT22;12071;50.850;4.446;2022-11-11T06:03:57;9.70;1.00
23783;DHT22;12071;50.850;4.446;2022-11-11T06:06:22;9.80;1.00
23783;DHT22;12071;50.850;4.446;2022-11-11T06:08:48;9.90;1.00
23783;DHT22;12071;50.850;4.446;2022-11-11T06:11:15;9.90;1.00
23783;DHT22;12071;50.850;4.446;2022-11-11T06:13:40;9.70;1.00
23783;DHT22;12071;50.850;4.446;2022-11-11T06:16:06;9.80;1.00
23783;DHT22;12071;50.850;4.446;2022-11-11T06:18:32;9.80;1.00
23783;DHT22;12071;50.850;4.446;2022-11-11T06:20:58;9.90;1.00
23783;DHT22;12071;50.850;4.446;2022-11-11T06:23:25;9.60;1.00
23783;DHT22;12071;50.850;4.446;2022-11-11T06:25:51;9.70;1.00
23783;DHT22;12071;50.850;4.446;2022-11-11T06:28:36;9.70;1.00
23783;DHT22;12071;50.850;4.446;2022-11-11T06:31:02;9.60;1.00
23783;DHT22;12071;50.850;4.446;2022-11-11T06:33:29;9.50;1.00
23783;DHT22;12071;50.850;4.446;2022-11-11T06:35:55;9.40;1.50
23783;DHT22;12071;50.850;4.446;2022-11-11T06:38:21;9.30;2.60
23783;DHT22;12071;50.850;4.446;2022-11-11T06:40:46;9.30;5.60
23783;DHT22;12071;50.850;4.446;2022-11-11T06:43:12;9.50;7.00
23783;DHT22;12071;50.850;4.446;2022-11-11T06:45:38;9.50;2.40
23783;DHT22;12071;50.850;4.446;2022-11-11T06:48:04;9.60;1.00
23783;DHT22;12071;50.850;4.446;2022-11-11T06:50:33;9.50;1.00
23783;DHT22;12071;50.850;4.446;2022-11-11T06:53:09;9.60;1.00
23783;DHT22;12071;50.850;4.446;2022-11-11T06:55:35;9.50;1.00
23783;DHT22;12071;50.850;4.446;2022-11-11T06:58:37;9.30;1.00
23783;DHT22;12071;50.850;4.446;2022-11-11T07:00:56;9.40;2.20
23783;DHT22;12071;50.850;4.446;2022-11-11T07:03:21;9.40;1.00
23783;DHT22;12071;50.850;4.446;2022-11-11T07:05:47;9.50;1.00
23783;DHT22;12071;50.850;4.446;2022-11-11T07:08:15;9.30;1.50
23783;DHT22;12071;50.850;4.446;2022-11-11T07:10:46;9.30;3.80
23783;DHT22;12071;50.850;4.446;2022-11-11T07:13:13;9.20;7.10
23783;DHT22;12071;50.850;4.446;2022-11-11T07:15:41;9.30;6.80
23783;DHT22;12071;50.850;4.446;2022-11-11T07:18:06;9.30;11.70
23783;DHT22;12071;50.850;4.446;2022-11-11T07:20:32;9.40;8.50
23783;DHT22;12071;50.850;4.446;2022-11-11T07:22:57;9.30;7.50
23783;DHT22;12071;50.850;4.446;2022-11-11T07:25:23;9.20;13.90
23783;DHT22;12071;50.850;4.446;2022-11-11T07:27:49;9.20;15.80
23783;DHT22;12071;50.850;4.446;2022-11-11T07:30:15;9.30;21.80
23783;DHT22;12071;50.850;4.446;2022-11-11T07:32:44;9.40;19.00
23783;DHT22;12071;50.850;4.446;2022-11-11T07:35:11;9.30;17.90
23783;DHT22;12071;50.850;4.446;2022-11-11T07:37:39;9.40;25.50
23783;DHT22;12071;50.850;4.446;2022-11-11T07:40:05;9.30;26.10
23783;DHT22;12071;50.850;4.446;2022-11-11T07:42:31;9.40;27.00
23783;DHT22;12071;50.850;4.446;2022-11-11T07:44:57;9.40;30.30
23783;DHT22;12071;50.850;4.446;2022-11-11T07:47:22;9.30;31.40
23783;DHT22;12071;50.850;4.446;2022-11-11T07:49:48;9.20;37.90
23783;DHT22;12071;50.850;4.446;2022-11-11T07:52:14;9.40;41.80
23783;DHT22;12071;50.850;4.446;2022-11-11T07:54:39;9.50;36.60
23783;DHT22;12071;50.850;4.446;2022-11-11T07:57:05;9.50;32.50
23783;DHT22;12071;50.850;4.446;2022-11-11T07:59:30;9.50;34.50
23783;DHT22;12071;50.850;4.446;2022-11-11T08:01:56;9.50;34.30
23783;DHT22;12071;50.850;4.446;2022-11-11T08:04:21;9.50;36.00
23783;DHT22;12071;50.850;4.446;2022-11-11T08:06:47;9.60;35.00
23783;DHT22;12071;50.850;4.446;2022-11-11T08:09:12;9.60;34.80
23783;DHT22;12071;50.850;4.446;2022-11-11T08:11:38;9.60;30.00
23783;DHT22;12071;50.850;4.446;2022-11-11T08:14:22;9.70;28.20
23783;DHT22;12071;50.850;4.446;2022-11-11T08:16:48;9.80;26.30
23783;DHT22;12071;50.850;4.446;2022-11-11T08:19:13;9.70;26.70
23783;DHT22;12071;50.850;4.446;2022-11-11T08:21:39;9.80;25.70
23783;DHT22;12071;50.850;4.446;2022-11-11T08:24:04;9.80;25.40
23783;DHT22;12071;50.850;4.446;2022-11-11T08:26:30;9.60;25.90
23783;DHT22;12071;50.850;4.446;2022-11-11T08:28:56;9.80;29.40
23783;DHT22;12071;50.850;4.446;2022-11-11T08:31:22;10.00;21.60
23783;DHT22;12071;50.850;4.446;2022-11-11T08:33:47;10.00;17.80
23783;DHT22;12071;50.850;4.446;2022-11-11T08:36:13;9.90;17.40
23783;DHT22;12071;50.850;4.446;2022-11-11T08:38:39;9.80;22.10
23783;DHT22;12071;50.850;4.446;2022-11-11T08:41:06;9.90;24.50
23783;DHT22;12071;50.850;4.446;2022-11-11T08:43:32;9.90;21.90
23783;DHT22;12071;50.850;4.446;2022-11-11T08:46:01;9.90;21.00
23783;DHT22;12071;50.850;4.446;2022-11-11T08:48:29;9.90;20.80
23783;DHT22;12071;50.850;4.446;2022-11-11T08:50:55;10.00;22.30
23783;DHT22;12071;50.850;4.446;2022-11-11T08:53:21;10.10;18.10
23783;DHT22;12071;50.850;4.446;2022-11-11T08:55:46;10.20;16.00
23783;DHT22;12071;50.850;4.446;2022-11-11T08:58:12;10.20;13.00
23783;DHT22;12071;50.850;4.446;2022-11-11T09:00:38;10.30;9.90
23783;DHT22;12071;50.850;4.446;2022-11-11T09:03:09;10.10;9.00
23783;DHT22;12071;50.850;4.446;2022-11-11T09:05:39;10.20;10.50
23783;DHT22;12071;50.850;4.446;2022-11-11T09:08:06;10.30;9.70
23783;DHT22;12071;50.850;4.446;2022-11-11T09:10:33;10.30;6.00
23783;DHT22;12071;50.850;4.446;2022-11-11T09:12:59;10.60;2.50
23783;DHT22;12071;50.850;4.446;2022-11-11T09:15:25;10.60;1.00
23783;DHT22;12071;50.850;4.446;2022-11-11T09:17:51;10.70;1.00
23783;DHT22;12071;50.850;4.446;2022-11-11T09:20:17;10.80;1.00
23783;DHT22;12071;50.850;4.446;2022-11-11T09:22:45;10.90;1.00
23783;DHT22;12071;50.850;4.446;2022-11-11T09:25:10;11.00;1.00
23783;DHT22;12071;50.850;4.446;2022-11-11T09:27:36;11.10;1.00
23783;DHT22;12071;50.850;4.446;2022-11-11T09:30:03;11.10;1.00
23783;DHT22;12071;50.850;4.446;2022-11-11T09:32:28;11.20;1.00
23783;DHT22;12071;50.850;4.446;2022-11-11T09:34:54;11.40;1.00
23783;DHT22;12071;50.850;4.446;2022-11-11T09:37:20;11.60;1.00
23783;DHT22;12071;50.850;4.446;2022-11-11T09:39:46;11.70;1.00
23783;DHT22;12071;50.850;4.446;2022-11-11T09:42:36;11.70;1.00
23783;DHT22;12071;50.850;4.446;2022-11-11T09:50:23;11.80;1.00
23783;DHT22;12071;50.850;4.446;2022-11-11T09:53:00;11.80;1.00
23783;DHT22;12071;50.850;4.446;2022-11-11T09:55:51;12.00;1.00
23783;DHT22;12071;50.850;4.446;2022-11-11T09:58:22;12.10;1.00
23783;DHT22;12071;50.850;4.446;2022-11-11T10:01:00;12.20;1.00
23783;DHT22;12071;50.850;4.446;2022-11-11T10:03:28;12.40;1.00
23783;DHT22;12071;50.850;4.446;2022-11-11T10:06:02;12.60;1.00
23783;DHT22;12071;50.850;4.446;2022-11-11T10:08:36;12.50;1.00
23783;DHT22;12071;50.850;4.446;2022-11-11T10:11:14;12.70;1.00
23783;DHT22;12071;50.850;4.446;2022-11-11T10:13:40;13.00;1.00
23783;DHT22;12071;50.850;4.446;2022-11-11T10:16:43;13.20;99.90
23783;DHT22;12071;50.850;4.446;2022-11-11T10:21:48;13.30;99.90
23783;DHT22;12071;50.850;4.446;2022-11-11T10:24:38;13.50;99.90
23783;DHT22;12071;50.850;4.446;2022-11-11T10:27:19;13.60;99.90
23783;DHT22;12071;50.850;4.446;2022-11-11T10:29:45;13.70;99.90
23783;DHT22;12071;50.850;4.446;2022-11-11T10:32:22;13.40;99.90
23783;DHT22;12071;50.850;4.446;2022-11-11T10:34:50;13.60;99.90
23783;DHT22;12071;50.850;4.446;2022-11-11T10:37:22;13.80;99.90
23783;DHT22;12071;50.850;4.446;2022-11-11T10:42:33;13.80;99.90
23783;DHT22;12071;50.850;4.446;2022-11-11T10:44:59;13.90;99.90
23783;DHT22;12071;50.850;4.446;2022-11-11T10:47:43;13.70;99.90
23783;DHT22;12071;50.850;4.446;2022-11-11T10:55:21;13.70;99.90
23783;DHT22;12071;50.850;4.446;2022-11-11T10:57:58;13.80;99.90
23783;DHT22;12071;50.850;4.446;2022-11-11T11:00:27;13.60;99.90
23783;DHT22;12071;50.850;4.446;2022-11-11T11:05:23;13.90;99.90
23783;DHT22;12071;50.850;4.446;2022-11-11T11:07:59;14.20;99.90
23783;DHT22;12071;50.850;4.446;2022-11-11T11:10:34;14.10;99.90
23783;DHT22;12071;50.850;4.446;2022-11-11T11:13:08;14.30;99.90
23783;DHT22;12071;50.850;4.446;2022-11-11T11:15:43;14.50;99.90
23783;DHT22;12071;50.850;4.446;2022-11-11T11:18:15;14.50;67.10
23783;DHT22;12071;50.850;4.446;2022-11-11T11:21:00;14.40;99.90
23783;DHT22;12071;50.850;4.446;2022-11-11T11:23:45;14.40;99.90
23783;DHT22;12071;50.850;4.446;2022-11-11T11:26:13;14.60;89.90
23783;DHT22;12071;50.850;4.446;2022-11-11T11:28:59;14.50;99.90
23783;DHT22;12071;50.850;4.446;2022-11-11T11:31:38;14.50;96.20
23783;DHT22;12071;50.850;4.446;2022-11-11T11:34:04;14.70;62.40
23783;DHT22;12071;50.850;4.446;2022-11-11T11:36:30;14.70;73.90
23783;DHT22;12071;50.850;4.446;2022-11-11T11:38:56;14.70;67.90
23783;DHT22;12071;50.850;4.446;2022-11-11T11:41:43;14.60;78.60
23783;DHT22;12071;50.850;4.446;2022-11-11T11:44:30;14.70;95.50
23783;DHT22;12071;50.850;4.446;2022-11-11T11:47:11;14.80;92.80
23783;DHT22;12071;50.850;4.446;2022-11-11T11:52:17;14.70;44.80
23783;DHT22;12071;50.850;4.446;2022-11-11T12:00:22;15.00;56.40
23783;DHT22;12071;50.850;4.446;2022-11-11T12:11:42;15.30;5.90
23783;DHT22;12071;50.850;4.446;2022-11-11T12:17:54;15.50;1.00
23783;DHT22;12071;50.850;4.446;2022-11-11T12:23:27;15.60;1.00
23783;DHT22;12071;50.850;4.446;2022-11-11T12:26:06;15.50;1.00
23783;DHT22;12071;50.850;4.446;2022-11-11T12:28:51;15.80;99.90
23783;DHT22;12071;50.850;4.446;2022-11-11T12:31:57;16.20;99.90
23783;DHT22;12071;50.850;4.446;2022-11-11T12:34:48;16.50;99.90
23783;DHT22;12071;50.850;4.446;2022-11-11T12:37:32;16.60;99.90
23783;DHT22;12071;50.850;4.446;2022-11-11T12:45:45;16.90;1.00
23783;DHT22;12071;50.850;4.446;2022-11-11T12:54:11;16.80;99.90
23783;DHT22;12071;50.850;4.446;2022-11-11T12:57:07;16.40;1.00
23783;DHT22;12071;50.850;4.446;2022-11-11T13:00:00;16.30;1.00
23783;DHT22;12071;50.850;4.446;2022-11-11T13:10:51;17.10;99.90
23783;DHT22;12071;50.850;4.446;2022-11-11T13:14:04;17.10;99.90
23783;DHT22;12071;50.850;4.446;2022-11-11T13:16:26;17.30;99.90
23783;DHT22;12071;50.850;4.446;2022-11-11T13:19:01;17.40;99.90
23783;DHT22;12071;50.850;4.446;2022-11-11T13:21:42;17.60;1.00
23783;DHT22;12071;50.850;4.446;2022-11-11T13:24:11;17.50;12.50
23783;DHT22;12071;50.850;4.446;2022-11-11T13:26:42;17.70;1.00
23783;DHT22;12071;50.850;4.446;2022-11-11T13:32:09;17.60;99.90
23783;DHT22;12071;50.850;4.446;2022-11-11T13:34:37;17.30;99.90
23783;DHT22;12071;50.850;4.446;2022-11-11T13:37:06;17.10;33.40
23783;DHT22;12071;50.850;4.446;2022-11-11T13:39:38;17.10;99.90
23783;DHT22;12071;50.850;4.446;2022-11-11T13:42:06;17.40;1.00
23783;DHT22;12071;50.850;4.446;2022-11-11T13:45:49;17.40;93.20
23783;DHT22;12071;50.850;4.446;2022-11-11T13:47:44;17.20;99.90
23783;DHT22;12071;50.850;4.446;2022-11-11T13:50:25;17.40;99.90
23783;DHT22;12071;50.850;4.446;2022-11-11T13:53:13;17.60;61.90
23783;DHT22;12071;50.850;4.446;2022-11-11T13:55:42;17.60;1.00
23783;DHT22;12071;50.850;4.446;2022-11-11T13:58:24;17.40;1.00
23783;DHT22;12071;50.850;4.446;2022-11-11T14:01:03;17.10;99.50
23783;DHT22;12071;50.850;4.446;2022-11-11T14:03:37;17.20;1.00
23783;DHT22;12071;50.850;4.446;2022-11-11T14:11:38;17.00;99.90
23783;DHT22;12071;50.850;4.446;2022-11-11T14:16:56;17.00;99.90
23783;DHT22;12071;50.850;4.446;2022-11-11T14:26:59;17.00;99.90
23783;DHT22;12071;50.850;4.446;2022-11-11T14:29:31;16.80;1.00
23783;DHT22;12071;50.850;4.446;2022-11-11T14:40:03;16.90;99.90
23783;DHT22;12071;50.850;4.446;2022-11-11T14:45:04;16.90;99.90
23783;DHT22;12071;50.850;4.446;2022-11-11T14:47:41;17.00;99.90
23783;DHT22;12071;50.850;4.446;2022-11-11T14:52:58;16.90;1.00
23783;DHT22;12071;50.850;4.446;2022-11-11T14:55:35;16.90;99.90
23783;DHT22;12071;50.850;4.446;2022-11-11T14:58:17;16.70;99.90
23783;DHT22;12071;50.850;4.446;2022-11-11T15:00:47;16.60;79.40
23783;DHT22;12071;50.850;4.446;2022-11-11T15:16:50;16.10;1.00
23783;DHT22;12071;50.850;4.446;2022-11-11T15:29:56;15.30;99.90
23783;DHT22;12071;50.850;4.446;2022-11-11T15:32:59;15.10;1.00
23783;DHT22;12071;50.850;4.446;2022-11-11T15:35:49;15.20;1.00
23783;DHT22;12071;50.850;4.446;2022-11-11T15:38:17;14.90;1.00
23783;DHT22;12071;50.850;4.446;2022-11-11T15:40:53;14.70;1.00
23783;DHT22;12071;50.850;4.446;2022-11-11T15:43:32;14.60;1.00
23783;DHT22;12071;50.850;4.446;2022-11-11T15:46:01;14.40;5.90
23783;DHT22;12071;50.850;4.446;2022-11-11T15:48:41;14.10;60.20
23783;DHT22;12071;50.850;4.446;2022-11-11T15:53:46;13.90;99.90
23783;DHT22;12071;50.850;4.446;2022-11-11T15:56:29;13.90;99.90
23783;DHT22;12071;50.850;4.446;2022-11-11T15:58:55;13.70;99.90
23783;DHT22;12071;50.850;4.446;2022-11-11T16:01:24;13.70;99.90
23783;DHT22;12071;50.850;4.446;2022-11-11T16:03:50;13.60;99.90
23783;DHT22;12071;50.850;4.446;2022-11-11T16:06:16;13.50;99.90
23783;DHT22;12071;50.850;4.446;2022-11-11T16:08:49;13.40;99.90
23783;DHT22;12071;50.850;4.446;2022-11-11T16:11:17;13.30;99.90
23783;DHT22;12071;50.850;4.446;2022-11-11T16:13:55;13.30;99.90
23783;DHT22;12071;50.850;4.446;2022-11-11T16:16:25;13.20;99.90
23783;DHT22;12071;50.850;4.446;2022-11-11T16:18:56;13.10;99.90
23783;DHT22;12071;50.850;4.446;2022-11-11T16:21:34;13.00;99.90
23783;DHT22;12071;50.850;4.446;2022-11-11T16:24:02;13.00;99.90
23783;DHT22;12071;50.850;4.446;2022-11-11T16:26:31;12.80;99.90
23783;DHT22;12071;50.850;4.446;2022-11-11T16:28:57;13.00;99.90
23783;DHT22;12071;50.850;4.446;2022-11-11T16:33:59;13.10;99.90
23783;DHT22;12071;50.850;4.446;2022-11-11T16:36:25;13.10;99.90
23783;DHT22;12071;50.850;4.446;2022-11-11T16:38:51;12.90;99.90
23783;DHT22;12071;50.850;4.446;2022-11-11T16:41:29;12.80;99.90
23783;DHT22;12071;50.850;4.446;2022-11-11T16:43:56;12.80;99.90
23783;DHT22;12071;50.850;4.446;2022-11-11T16:46:38;12.70;99.90
23783;DHT22;12071;50.850;4.446;2022-11-11T16:49:19;12.80;99.90
23783;DHT22;12071;50.850;4.446;2022-11-11T16:51:47;12.70;99.90
23783;DHT22;12071;50.850;4.446;2022-11-11T16:54:22;12.70;99.90
23783;DHT22;12071;50.850;4.446;2022-11-11T16:56:54;12.60;99.90
23783;DHT22;12071;50.850;4.446;2022-11-11T17:01:53;12.60;99.90
23783;DHT22;12071;50.850;4.446;2022-11-11T17:04:19;12.60;99.90
23783;DHT22;12071;50.850;4.446;2022-11-11T17:06:46;12.60;99.90
23783;DHT22;12071;50.850;4.446;2022-11-11T17:11:56;12.30;99.90
23783;DHT22;12071;50.850;4.446;2022-11-11T17:14:22;12.40;99.90
23783;DHT22;12071;50.850;4.446;2022-11-11T17:16:48;12.30;99.90
23783;DHT22;12071;50.850;4.446;2022-11-11T17:19:13;12.20;99.90
23783;DHT22;12071;50.850;4.446;2022-11-11T17:21:39;12.40;99.90
23783;DHT22;12071;50.850;4.446;2022-11-11T17:24:05;12.40;99.90
23783;DHT22;12071;50.850;4.446;2022-11-11T17:26:30;12.30;99.90
23783;DHT22;12071;50.850;4.446;2022-11-11T17:28:56;12.30;99.90
23783;DHT22;12071;50.850;4.446;2022-11-11T17:31:22;12.00;1.00
23783;DHT22;12071;50.850;4.446;2022-11-11T17:33:50;12.00;1.00
23783;DHT22;12071;50.850;4.446;2022-11-11T17:36:16;11.90;1.00
23783;DHT22;12071;50.850;4.446;2022-11-11T17:38:42;11.90;1.00
23783;DHT22;12071;50.850;4.446;2022-11-11T17:41:12;11.90;1.00
23783;DHT22;12071;50.850;4.446;2022-11-11T17:43:38;11.90;1.00
23783;DHT22;12071;50.850;4.446;2022-11-11T17:46:03;12.10;1.00
23783;DHT22;12071;50.850;4.446;2022-11-11T17:48:29;12.10;1.00
23783;DHT22;12071;50.850;4.446;2022-11-11T17:50:55;12.10;99.90
23783;DHT22;12071;50.850;4.446;2022-11-11T17:53:21;12.00;1.00
23783;DHT22;12071;50.850;4.446;2022-11-11T17:55:46;11.80;1.00
23783;DHT22;12071;50.850;4.446;2022-11-11T17:58:12;11.60;1.00
23783;DHT22;12071;50.850;4.446;2022-11-11T18:00:38;11.40;1.00
23783;DHT22;12071;50.850;4.446;2022-11-11T18:03:05;11.10;1.00
23783;DHT22;12071;50.850;4.446;2022-11-11T18:05:32;10.80;1.00
23783;DHT22;12071;50.850;4.446;2022-11-11T18:07:58;10.80;1.00
23783;DHT22;12071;50.850;4.446;2022-11-11T18:10:24;11.20;1.00
23783;DHT22;12071;50.850;4.446;2022-11-11T18:12:49;11.50;1.00
23783;DHT22;12071;50.850;4.446;2022-11-11T18:15:15;11.50;1.00
23783;DHT22;12071;50.850;4.446;2022-11-11T18:17:40;11.60;1.00
23783;DHT22;12071;50.850;4.446;2022-11-11T18:20:06;11.20;1.00
23783;DHT22;12071;50.850;4.446;2022-11-11T18:22:32;11.00;1.00
23783;DHT22;12071;50.850;4.446;2022-11-11T18:24:58;11.10;1.00